createdAt,value
2022-11-16T00:01:07.657Z,143.07
2022-11-16T00:03:34.289Z,145.35
2022-11-16T00:06:02.069Z,136.73
2022-11-16T00:08:29.182Z,116.63
2022-11-16T00:10:55.801Z,75.23
2022-11-16T00:13:22.332Z,103.93
2022-11-16T00:15:56.187Z,99.90
2022-11-16T00:18:22.951Z,96.80
2022-11-16T00:20:49.700Z,94.63
2022-11-16T00:23:16.129Z,95.55
2022-11-16T00:25:42.625Z,89.80
2022-11-16T00:28:09.079Z,95.78
2022-11-16T00:30:35.532Z,102.20
2022-11-16T00:33:02.402Z,95.95
2022-11-16T00:35:28.857Z,92.93
2022-11-16T00:37:55.369Z,95.30
2022-11-16T00:40:21.936Z,109.47
2022-11-16T00:42:48.391Z,97.78
2022-11-16T00:45:14.806Z,104.22
2022-11-16T00:47:41.318Z,108.65
2022-11-16T00:50:07.924Z,133.27
2022-11-16T00:52:34.372Z,141.98
2022-11-16T00:55:00.870Z,220.93
2022-11-16T00:57:27.335Z,131.38
2022-11-16T00:59:53.770Z,159.70
2022-11-16T01:02:20.231Z,186.48
2022-11-16T01:04:46.788Z,173.73
2022-11-16T01:07:13.344Z,102.03
2022-11-16T01:09:39.947Z,116.25
2022-11-16T01:12:09.069Z,111.60
2022-11-16T01:14:39.831Z,120.95
2022-11-16T01:17:06.479Z,93.47
2022-11-16T01:19:33.061Z,111.80
2022-11-16T01:21:59.796Z,140.25
2022-11-16T01:24:26.781Z,123.50
2022-11-16T01:26:58.153Z,124.95
2022-11-16T01:29:25.374Z,100.35
2022-11-16T01:31:52.090Z,113.70
2022-11-16T01:34:18.666Z,118.05
2022-11-16T01:36:45.168Z,114.57
2022-11-16T01:39:12.461Z,142.25
2022-11-16T01:41:39.543Z,126.30
2022-11-16T01:44:07.419Z,118.10
2022-11-16T01:46:33.893Z,110.68
2022-11-16T01:49:05.534Z,128.00
2022-11-16T01:51:32.775Z,109.72
2022-11-16T01:54:00.427Z,105.38
2022-11-16T01:56:27.103Z,83.07
2022-11-16T01:58:53.636Z,108.55
2022-11-16T02:01:20.116Z,106.75
2022-11-16T02:03:46.668Z,120.50
2022-11-16T02:06:28.466Z,130.95
2022-11-16T02:09:31.998Z,82.55
2022-11-16T02:12:01.308Z,77.43
2022-11-16T02:14:27.808Z,87.20
2022-11-16T02:16:54.312Z,79.15
2022-11-16T02:19:41.058Z,67.38
2022-11-16T02:22:07.517Z,98.93
2022-11-16T02:24:42.371Z,80.25
2022-11-16T02:27:17.838Z,93.38
2022-11-16T02:29:44.332Z,67.82
2022-11-16T02:32:13.556Z,90.57
2022-11-16T02:34:42.136Z,69.63
2022-11-16T02:37:10.699Z,88.55
2022-11-16T02:39:38.020Z,112.63
2022-11-16T02:42:08.467Z,72.05
2022-11-16T02:44:36.304Z,70.30
2022-11-16T02:47:05.183Z,75.32
2022-11-16T02:49:33.616Z,65.63
2022-11-16T02:52:00.385Z,71.80
2022-11-16T02:54:27.077Z,62.05
2022-11-16T02:56:53.494Z,58.38
2022-11-16T02:59:20.532Z,62.72
2022-11-16T03:02:09.723Z,59.25
2022-11-16T03:04:38.711Z,61.72
2022-11-16T03:07:07.156Z,59.55
2022-11-16T03:09:36.038Z,60.67
2022-11-16T03:12:05.928Z,62.13
2022-11-16T03:14:35.424Z,73.43
2022-11-16T03:17:02.967Z,80.10
2022-11-16T03:19:41.391Z,77.47
2022-11-16T03:22:20.056Z,108.43
2022-11-16T03:27:20.665Z,79.85
2022-11-16T03:29:50.217Z,74.70
2022-11-16T03:32:23.086Z,79.78
2022-11-16T03:34:58.888Z,88.28
2022-11-16T03:37:26.333Z,89.88
2022-11-16T03:39:53.311Z,115.90
2022-11-16T03:42:20.740Z,100.28
2022-11-16T03:44:48.148Z,102.63
2022-11-16T03:47:14.902Z,88.13
2022-11-16T03:49:47.756Z,87.38
2022-11-16T03:52:15.438Z,87.43
2022-11-16T03:54:42.335Z,86.97
2022-11-16T03:57:15.432Z,98.15
2022-11-16T03:59:43.317Z,141.05
2022-11-16T04:02:10.796Z,80.50
2022-11-16T04:04:55.804Z,76.85
2022-11-16T04:07:40.651Z,80.70
2022-11-16T04:10:25.998Z,79.25
2022-11-16T04:13:11.331Z,84.07
2022-11-16T04:15:56.430Z,90.82
2022-11-16T04:18:41.194Z,106.80
2022-11-16T04:21:35.835Z,86.40
2022-11-16T04:24:14.341Z,103.80
2022-11-16T04:27:01.480Z,87.57
2022-11-16T04:29:28.108Z,76.55
2022-11-16T04:32:12.962Z,116.45
2022-11-16T04:34:57.949Z,89.22
2022-11-16T04:37:42.788Z,85.20
2022-11-16T04:40:09.693Z,98.70
2022-11-16T04:42:36.146Z,101.65
2022-11-16T04:45:21.474Z,106.63
2022-11-16T04:47:51.254Z,80.30
2022-11-16T04:50:18.189Z,85.15
2022-11-16T04:52:44.751Z,73.75
2022-11-16T04:55:12.032Z,75.65
2022-11-16T04:57:39.080Z,85.63
2022-11-16T05:00:06.630Z,97.10
2022-11-16T05:02:33.138Z,93.82
2022-11-16T05:04:59.675Z,83.88
2022-11-16T05:07:26.328Z,75.38
2022-11-16T05:09:52.864Z,89.32
2022-11-16T05:12:26.037Z,88.47
2022-11-16T05:14:52.805Z,81.30
2022-11-16T05:17:19.496Z,97.07
2022-11-16T05:20:04.721Z,96.72
2022-11-16T05:22:31.158Z,107.80
2022-11-16T05:24:57.636Z,90.63
2022-11-16T05:27:24.935Z,85.80
2022-11-16T05:29:51.749Z,102.95
2022-11-16T05:32:19.046Z,96.18
2022-11-16T05:34:45.711Z,134.32
2022-11-16T05:37:12.518Z,99.85
2022-11-16T05:39:39.049Z,107.25
2022-11-16T05:42:05.871Z,101.20
2022-11-16T05:44:32.370Z,98.53
2022-11-16T05:46:58.878Z,126.10
2022-11-16T05:49:25.666Z,130.05
2022-11-16T05:51:52.137Z,178.10
2022-11-16T05:54:20.205Z,145.90
2022-11-16T05:59:16.487Z,202.07
2022-11-16T06:01:43.430Z,149.10
2022-11-16T06:04:10.155Z,223.20
2022-11-16T06:06:36.794Z,235.80
2022-11-16T06:09:03.570Z,164.05
2022-11-16T06:11:35.488Z,212.43
2022-11-16T06:14:02.692Z,157.15
2022-11-16T06:16:29.178Z,100.05
2022-11-16T06:18:55.667Z,121.13
2022-11-16T06:21:22.154Z,98.55
2022-11-16T06:23:48.651Z,99.70
2022-11-16T06:26:15.179Z,91.20
2022-11-16T06:28:41.752Z,88.15
2022-11-16T06:31:08.232Z,87.82
2022-11-16T06:33:34.715Z,182.95
2022-11-16T06:36:01.197Z,140.40
2022-11-16T06:38:28.309Z,93.15
2022-11-16T06:40:56.138Z,114.57
2022-11-16T06:43:23.275Z,97.25
2022-11-16T06:45:50.791Z,113.83
2022-11-16T06:48:17.994Z,120.80
2022-11-16T06:50:44.536Z,126.43
2022-11-16T06:53:11.946Z,95.40
2022-11-16T06:55:38.402Z,84.45
2022-11-16T06:58:04.835Z,80.47
2022-11-16T07:00:31.772Z,75.20
2022-11-16T07:02:58.710Z,92.15
2022-11-16T07:05:25.201Z,81.78
2022-11-16T07:07:55.288Z,75.03
2022-11-16T07:10:21.902Z,82.57
2022-11-16T07:12:48.470Z,75.65
2022-11-16T07:15:15.051Z,86.68
2022-11-16T07:17:42.571Z,101.97
2022-11-16T07:20:09.368Z,83.43
2022-11-16T07:22:35.853Z,99.97
2022-11-16T07:25:02.639Z,85.13
2022-11-16T07:27:29.066Z,81.82
2022-11-16T07:29:55.730Z,113.22
2022-11-16T07:32:22.192Z,97.00
2022-11-16T07:34:48.624Z,92.93
2022-11-16T07:37:15.111Z,104.00
2022-11-16T07:39:41.681Z,105.13
2022-11-16T07:42:12.708Z,95.50
2022-11-16T07:44:39.344Z,115.93
2022-11-16T07:47:05.973Z,107.75
2022-11-16T07:49:32.482Z,90.88
2022-11-16T07:51:58.991Z,94.72
2022-11-16T07:54:25.503Z,93.72
2022-11-16T07:56:52.217Z,91.07
2022-11-16T07:59:18.647Z,84.32
2022-11-16T08:01:46.911Z,86.53
2022-11-16T08:04:15.424Z,80.82
2022-11-16T08:06:41.870Z,90.85
2022-11-16T08:09:09.047Z,78.32
2022-11-16T08:11:35.491Z,70.93
2022-11-16T08:14:01.970Z,92.97
2022-11-16T08:16:28.575Z,72.53
2022-11-16T08:18:55.156Z,70.82
2022-11-16T08:21:21.640Z,68.07
2022-11-16T08:23:48.201Z,74.93
2022-11-16T08:26:18.704Z,72.25
2022-11-16T08:28:47.277Z,81.13
2022-11-16T08:31:14.989Z,74.95
2022-11-16T08:33:41.874Z,68.13
2022-11-16T08:36:13.805Z,67.60
2022-11-16T08:38:40.825Z,76.38
2022-11-16T08:41:07.479Z,73.50
2022-11-16T08:43:33.981Z,66.72
2022-11-16T08:46:01.651Z,79.82
2022-11-16T08:48:28.129Z,69.50
2022-11-16T08:53:38.321Z,68.65
2022-11-16T08:56:06.139Z,67.03
2022-11-16T08:58:32.861Z,83.03
2022-11-16T09:00:59.615Z,58.08
2022-11-16T09:03:27.574Z,71.78
2022-11-16T09:05:54.100Z,66.15
2022-11-16T09:08:20.622Z,67.63
2022-11-16T09:10:47.166Z,80.00
2022-11-16T09:16:01.273Z,69.80
2022-11-16T09:18:28.562Z,68.30
2022-11-16T09:20:55.082Z,65.57
2022-11-16T09:23:25.259Z,62.88
2022-11-16T09:25:52.403Z,62.30
2022-11-16T09:28:19.037Z,65.35
2022-11-16T09:30:46.501Z,56.05
2022-11-16T09:33:13.428Z,50.72
2022-11-16T09:35:40.278Z,57.25
2022-11-16T09:38:07.061Z,61.45
2022-11-16T09:40:37.947Z,52.97
2022-11-16T09:43:16.663Z,61.05
2022-11-16T09:45:48.656Z,57.33
2022-11-16T09:48:15.537Z,50.72
2022-11-16T09:53:42.484Z,51.60
